Whiteclay, Nebraska
Current Conditions -  °F | °C
As of 11:52 AM on Friday 28 Nov 2014 (Local Time) from KIEN Reporting Station
Clear Clear  
Wind Chill: 60°   Ceiling: Unl
Heat Index: 60°   Visibility: 10mi
Dew Point: 28°   Wind: 10mph
Humidity: 30%   Direction: 260°W
Pressure: 29.7"   Gusts: NA
Location:  43°N, 102.56°W
Report Text: KIEN 281852Z AUTO 26009KT 10SM CLR 16/M02 A2970 RMK AO2 SLP053 T01561022
Loading
Personal Weather Stations






























Interactive Weather Map New forecast layout! Learn more

10-Day Weather Forecast

Advertisements
Track Severe Weather on mobile